createdAt,value
2023-02-09T00:01:47.408Z,0.10
2023-02-09T00:04:15.509Z,0.09
2023-02-09T00:06:44.531Z,0.12
2023-02-09T00:09:12.164Z,0.18
2023-02-09T00:11:57.441Z,0.20
2023-02-09T00:14:25.198Z,0.12
2023-02-09T00:16:53.034Z,0.14
2023-02-09T00:19:21.843Z,0.16
2023-02-09T00:21:50.829Z,0.16
2023-02-09T00:24:18.692Z,0.24
2023-02-09T00:26:46.613Z,0.22
2023-02-09T00:29:14.696Z,0.19
2023-02-09T00:31:42.399Z,0.20
2023-02-09T00:34:11.036Z,0.30
2023-02-09T00:36:38.677Z,0.29
2023-02-09T00:39:07.854Z,0.17
2023-02-09T00:41:52.905Z,0.16
2023-02-09T00:44:20.621Z,0.09
2023-02-09T00:46:48.964Z,0.08
2023-02-09T00:49:16.871Z,0.11
2023-02-09T00:51:44.559Z,0.08
2023-02-09T00:54:13.657Z,0.11
2023-02-09T00:56:41.340Z,0.13
2023-02-09T00:59:09.052Z,0.05
2023-02-09T01:01:37.028Z,0.02
2023-02-09T01:04:05.387Z,0.07
2023-02-09T01:06:33.224Z,0.06
2023-02-09T01:09:01.069Z,0.05
2023-02-09T01:11:30.424Z,0.02
2023-02-09T01:13:59.792Z,0.03
2023-02-09T01:16:30.393Z,-0.02
2023-02-09T01:19:00.658Z,-0.03
2023-02-09T01:21:28.412Z,-0.12
2023-02-09T01:23:56.387Z,-0.11
2023-02-09T01:26:24.285Z,-0.10
2023-02-09T01:28:54.287Z,-0.21
2023-02-09T01:31:25.838Z,-0.26
2023-02-09T01:33:54.434Z,-0.18
2023-02-09T01:36:22.446Z,-0.08
2023-02-09T01:38:50.315Z,-0.07
2023-02-09T01:41:18.382Z,-0.06
2023-02-09T01:43:51.124Z,0.01
2023-02-09T01:46:20.227Z,-0.14
2023-02-09T01:48:48.810Z,-0.22
2023-02-09T01:51:16.612Z,-0.15
2023-02-09T01:53:44.525Z,-0.08
2023-02-09T01:56:15.028Z,-0.05
2023-02-09T01:58:42.770Z,-0.03
2023-02-09T02:01:10.587Z,-0.12
2023-02-09T02:03:39.758Z,-0.11
2023-02-09T02:06:10.771Z,-0.12
2023-02-09T02:08:41.491Z,0.01
2023-02-09T02:11:10.165Z,0.04
2023-02-09T02:13:37.847Z,0.02
2023-02-09T02:16:09.998Z,-0.03
2023-02-09T02:18:48.803Z,0.07
2023-02-09T02:21:52.811Z,0.12
2023-02-09T02:24:48.857Z,0.01
2023-02-09T02:27:26.019Z,0.09
2023-02-09T02:30:04.632Z,-0.07
2023-02-09T02:32:43.271Z,-0.14
2023-02-09T02:35:16.843Z,-0.07
2023-02-09T02:37:53.486Z,-0.05
2023-02-09T02:40:27.677Z,-0.08
2023-02-09T02:42:58.633Z,-0.11
2023-02-09T02:45:35.240Z,-0.06
2023-02-09T02:48:11.678Z,-0.10
2023-02-09T02:50:43.142Z,-0.13
2023-02-09T02:53:12.003Z,-0.26
2023-02-09T02:55:40.310Z,-0.27
2023-02-09T02:58:10.552Z,-0.25
2023-02-09T03:00:40.920Z,-0.22
2023-02-09T03:03:13.957Z,-0.20
2023-02-09T03:05:43.164Z,-0.33
2023-02-09T03:08:10.847Z,-0.41
2023-02-09T03:10:39.838Z,-0.28
2023-02-09T03:13:31.548Z,-0.27
2023-02-09T03:16:10.042Z,-0.39
2023-02-09T03:18:45.208Z,-0.32
2023-02-09T03:21:16.426Z,-0.46
2023-02-09T03:23:48.605Z,-0.28
2023-02-09T03:26:20.463Z,-0.27
2023-02-09T03:28:50.148Z,-0.22
2023-02-09T03:31:17.892Z,-0.33
2023-02-09T03:33:47.115Z,-0.25
2023-02-09T03:36:18.143Z,-0.25
2023-02-09T03:38:46.030Z,-0.29
2023-02-09T03:41:13.765Z,-0.44
2023-02-09T03:43:59.024Z,-0.33
2023-02-09T03:46:26.842Z,-0.44
2023-02-09T03:48:55.971Z,-0.44
2023-02-09T03:51:23.693Z,-0.41
2023-02-09T03:53:51.431Z,-0.41
2023-02-09T03:56:19.050Z,-0.43
2023-02-09T03:58:46.750Z,-0.42
2023-02-09T04:01:14.456Z,-0.32
2023-02-09T04:03:42.131Z,-0.33
2023-02-09T04:06:11.188Z,-0.27
2023-02-09T04:08:39.007Z,-0.34
2023-02-09T04:11:06.822Z,-0.25
2023-02-09T04:13:34.476Z,-0.41
2023-02-09T04:16:02.245Z,-0.39
2023-02-09T04:18:29.899Z,-0.44
2023-02-09T04:20:57.603Z,-0.33
2023-02-09T04:23:26.595Z,-0.33
2023-02-09T04:25:54.326Z,-0.42
2023-02-09T04:28:22.078Z,-0.53
2023-02-09T04:30:53.096Z,-0.48
2023-02-09T04:33:20.890Z,-0.47
2023-02-09T04:35:49.003Z,-0.55
2023-02-09T04:38:19.442Z,-0.55
2023-02-09T04:40:49.626Z,-0.48
2023-02-09T04:43:17.743Z,-0.49
2023-02-09T04:45:45.582Z,-0.50
2023-02-09T04:48:15.625Z,-0.41
2023-02-09T04:50:43.868Z,-0.43
2023-02-09T04:53:12.122Z,-0.47
2023-02-09T04:55:39.994Z,-0.39
2023-02-09T04:58:27.926Z,-0.39
2023-02-09T05:00:56.187Z,-0.35
2023-02-09T05:03:24.796Z,-0.28
2023-02-09T05:05:55.807Z,-0.38
2023-02-09T05:08:23.763Z,-0.48
2023-02-09T05:10:51.994Z,-0.37
2023-02-09T05:13:21.717Z,-0.33
2023-02-09T05:15:50.026Z,-0.39
2023-02-09T05:18:18.331Z,-0.43
2023-02-09T05:20:46.622Z,-0.33
2023-02-09T05:23:15.036Z,-0.46
2023-02-09T05:25:43.055Z,-0.45
2023-02-09T05:28:10.823Z,-0.38
2023-02-09T05:30:39.970Z,-0.47
2023-02-09T05:33:07.676Z,-0.47
2023-02-09T05:35:36.091Z,-0.52
2023-02-09T05:38:04.075Z,-0.51
2023-02-09T05:40:31.747Z,-0.54
2023-02-09T05:43:00.324Z,-0.61
2023-02-09T05:45:28.131Z,-0.54
2023-02-09T05:47:57.264Z,-0.69
2023-02-09T05:50:25.021Z,-0.58
2023-02-09T05:52:52.663Z,-0.60
2023-02-09T05:55:20.393Z,-0.72
2023-02-09T05:57:48.030Z,-0.66
2023-02-09T06:00:16.755Z,-0.76
2023-02-09T06:02:44.509Z,-0.56
2023-02-09T06:05:13.554Z,-0.61
2023-02-09T06:07:41.258Z,-0.70
2023-02-09T06:10:09.434Z,-0.71
2023-02-09T06:12:37.158Z,-0.74
2023-02-09T06:15:05.608Z,-0.65
2023-02-09T06:17:33.443Z,-0.69
2023-02-09T06:20:01.082Z,-0.76
2023-02-09T06:22:31.722Z,-0.72
2023-02-09T06:24:59.515Z,-0.62
2023-02-09T06:27:27.405Z,-0.68
2023-02-09T06:29:55.108Z,-0.68
2023-02-09T06:32:22.775Z,-0.71
2023-02-09T06:34:50.400Z,-0.67
2023-02-09T06:37:18.083Z,-0.68
2023-02-09T06:39:47.209Z,-0.59
2023-02-09T06:42:15.109Z,-0.72
2023-02-09T06:44:42.856Z,-0.74
2023-02-09T06:47:10.549Z,-0.72
2023-02-09T06:49:38.239Z,-0.72
2023-02-09T06:52:06.658Z,-0.75
2023-02-09T06:54:34.360Z,-0.52
2023-02-09T06:57:03.351Z,-0.61
2023-02-09T06:59:31.015Z,-0.72
2023-02-09T07:01:58.758Z,-0.71
2023-02-09T07:04:26.502Z,-0.80
2023-02-09T07:06:54.185Z,-0.88
2023-02-09T07:09:21.896Z,-0.80
2023-02-09T07:11:49.589Z,-0.77
2023-02-09T07:14:18.684Z,-0.57
2023-02-09T07:16:46.327Z,-0.44
2023-02-09T07:19:14.196Z,-0.54
2023-02-09T07:21:41.903Z,-0.56
2023-02-09T07:24:09.614Z,-0.58
2023-02-09T07:26:37.287Z,-0.47
2023-02-09T07:29:04.967Z,-0.32
2023-02-09T07:31:34.167Z,-0.11
2023-02-09T07:34:01.999Z,-0.21
2023-02-09T07:36:29.836Z,-0.24
2023-02-09T07:38:57.903Z,-0.12
2023-02-09T07:41:26.177Z,-0.24
2023-02-09T07:43:53.935Z,-0.20
2023-02-09T07:46:23.204Z,-0.05
2023-02-09T07:48:52.237Z,0.10
2023-02-09T07:51:25.243Z,0.23
2023-02-09T07:53:53.515Z,0.37
2023-02-09T07:56:21.340Z,0.06
2023-02-09T07:58:49.292Z,0.13
2023-02-09T08:01:17.893Z,0.27
2023-02-09T08:03:46.891Z,0.39
2023-02-09T08:06:19.779Z,0.36
2023-02-09T08:08:48.447Z,0.42
2023-02-09T08:11:17.211Z,0.42
2023-02-09T08:13:45.008Z,0.54
2023-02-09T08:16:14.351Z,0.45
2023-02-09T08:18:45.170Z,0.62
2023-02-09T08:21:14.597Z,0.70
2023-02-09T08:23:45.428Z,0.84
2023-02-09T08:26:14.660Z,0.96
2023-02-09T08:28:44.907Z,1.06
2023-02-09T08:31:13.654Z,1.15
2023-02-09T08:33:41.507Z,1.24
2023-02-09T08:36:09.784Z,1.26
2023-02-09T08:38:37.517Z,1.45
2023-02-09T08:41:08.166Z,1.57
2023-02-09T08:43:36.365Z,1.30
2023-02-09T08:46:05.355Z,1.48
2023-02-09T08:48:35.690Z,1.66
2023-02-09T08:51:03.710Z,1.79
2023-02-09T08:53:31.534Z,1.88
2023-02-09T08:55:59.310Z,1.95
2023-02-09T08:58:30.212Z,1.97
2023-02-09T09:00:59.930Z,1.98
2023-02-09T09:03:31.313Z,1.96
2023-02-09T09:05:59.597Z,1.90
2023-02-09T09:08:27.566Z,2.16
2023-02-09T09:10:55.471Z,2.34
2023-02-09T09:13:24.875Z,2.37
2023-02-09T09:15:55.156Z,2.45
2023-02-09T09:18:24.070Z,2.65
2023-02-09T09:20:53.332Z,2.70
2023-02-09T09:23:21.605Z,2.53
2023-02-09T09:25:49.466Z,2.71
2023-02-09T09:28:17.627Z,2.67
2023-02-09T09:30:45.427Z,2.46
2023-02-09T09:33:14.522Z,2.73
2023-02-09T09:35:42.306Z,2.83
2023-02-09T09:38:09.971Z,2.78
2023-02-09T09:40:40.482Z,2.50
2023-02-09T09:43:15.065Z,2.46
2023-02-09T09:45:43.003Z,2.80
2023-02-09T09:48:23.078Z,2.67
2023-02-09T09:50:52.236Z,2.88
2023-02-09T09:53:28.647Z,2.85
2023-02-09T09:55:59.297Z,2.82
2023-02-09T09:58:28.830Z,2.63
2023-02-09T10:00:56.567Z,2.70
2023-02-09T10:03:35.321Z,2.85
2023-02-09T10:06:13.899Z,2.96
2023-02-09T10:08:45.158Z,3.06
2023-02-09T10:11:14.848Z,3.16
2023-02-09T10:13:44.977Z,3.01
2023-02-09T10:16:17.260Z,3.18
2023-02-09T10:18:46.602Z,3.19
2023-02-09T10:21:16.094Z,3.17
2023-02-09T10:23:45.824Z,3.17
2023-02-09T10:26:24.628Z,3.24
2023-02-09T10:28:54.339Z,3.44
2023-02-09T10:31:25.475Z,3.30
2023-02-09T10:33:58.239Z,3.36
2023-02-09T10:36:32.332Z,3.33
2023-02-09T10:39:15.387Z,3.39
2023-02-09T10:41:44.776Z,3.61
2023-02-09T10:44:19.494Z,3.91
2023-02-09T10:46:48.090Z,3.98
2023-02-09T10:49:31.450Z,4.22
2023-02-09T10:52:16.826Z,4.40
2023-02-09T10:54:45.975Z,4.46
2023-02-09T10:57:28.629Z,4.73
2023-02-09T10:59:58.302Z,4.89
2023-02-09T11:02:33.731Z,4.85
2023-02-09T11:05:02.928Z,5.17
2023-02-09T11:07:34.551Z,4.97
2023-02-09T11:10:03.510Z,4.81
2023-02-09T11:12:31.235Z,4.43
2023-02-09T11:14:58.941Z,4.63
2023-02-09T11:17:28.159Z,4.85
2023-02-09T11:20:15.504Z,4.63
2023-02-09T11:23:03.863Z,5.05
2023-02-09T11:25:34.454Z,4.88
2023-02-09T11:28:22.861Z,5.05
2023-02-09T11:31:16.777Z,5.32
2023-02-09T11:33:53.363Z,5.12
2023-02-09T11:36:37.460Z,5.15
2023-02-09T11:39:09.467Z,4.98
2023-02-09T11:41:57.580Z,4.88
2023-02-09T11:44:31.190Z,5.31
2023-02-09T11:47:02.802Z,5.35
2023-02-09T11:49:31.016Z,5.17
2023-02-09T11:52:00.718Z,5.07
2023-02-09T11:54:31.411Z,5.17
2023-02-09T11:57:02.159Z,5.04
2023-02-09T11:59:33.804Z,5.43
2023-02-09T12:02:08.397Z,5.27
2023-02-09T12:04:43.596Z,5.27
2023-02-09T12:07:17.291Z,5.58
2023-02-09T12:09:48.161Z,5.76
2023-02-09T12:12:23.367Z,5.78
2023-02-09T12:15:09.956Z,5.96
2023-02-09T12:17:42.741Z,6.23
2023-02-09T12:20:31.365Z,6.38
2023-02-09T12:23:07.794Z,6.34
2023-02-09T12:25:54.556Z,6.25
2023-02-09T12:28:47.364Z,6.18
2023-02-09T12:31:24.306Z,6.07
2023-02-09T12:34:15.799Z,6.03
2023-02-09T12:37:18.022Z,5.77
2023-02-09T12:40:29.912Z,5.93
2023-02-09T12:43:30.342Z,5.81
2023-02-09T12:46:21.015Z,6.06
2023-02-09T12:48:54.895Z,5.85
2023-02-09T12:51:40.346Z,5.93
2023-02-09T12:54:32.872Z,5.78
2023-02-09T12:57:33.747Z,5.99
2023-02-09T13:00:31.076Z,5.95
2023-02-09T13:03:11.441Z,5.81
2023-02-09T13:05:44.576Z,5.60
2023-02-09T13:08:25.556Z,5.73
2023-02-09T13:10:57.736Z,5.67
2023-02-09T13:13:34.320Z,5.75
2023-02-09T13:16:41.607Z,5.80
2023-02-09T13:19:18.182Z,5.79
2023-02-09T13:21:57.733Z,5.82
2023-02-09T13:24:36.545Z,5.88
2023-02-09T13:27:04.755Z,5.84
2023-02-09T13:29:33.245Z,5.84
2023-02-09T13:32:08.282Z,5.73
2023-02-09T13:34:39.368Z,5.64
2023-02-09T13:37:15.415Z,5.60
2023-02-09T13:39:44.138Z,5.63
2023-02-09T13:42:20.106Z,5.67
2023-02-09T13:44:51.614Z,5.54
2023-02-09T13:47:21.042Z,5.36
2023-02-09T13:50:00.077Z,5.57
2023-02-09T13:52:28.803Z,5.72
2023-02-09T13:54:56.426Z,5.80
2023-02-09T13:57:33.169Z,5.83
2023-02-09T14:00:08.648Z,5.70
2023-02-09T14:02:38.166Z,5.90
2023-02-09T14:05:07.631Z,5.85
2023-02-09T14:07:37.772Z,5.92
2023-02-09T14:10:12.301Z,6.17
2023-02-09T14:12:52.034Z,6.30
2023-02-09T14:15:38.674Z,6.27
2023-02-09T14:18:23.399Z,6.34
2023-02-09T14:21:19.581Z,6.09
2023-02-09T14:23:49.308Z,6.16
2023-02-09T14:26:23.693Z,6.13
2023-02-09T14:28:54.126Z,6.16
2023-02-09T14:31:23.823Z,5.92
2023-02-09T14:33:55.560Z,5.97
2023-02-09T14:36:25.942Z,5.86
2023-02-09T14:38:54.179Z,5.91
2023-02-09T14:41:29.818Z,5.76
2023-02-09T14:43:59.931Z,5.60
2023-02-09T14:46:27.723Z,5.74
2023-02-09T14:48:59.542Z,5.72
2023-02-09T14:51:28.633Z,5.86
2023-02-09T14:53:56.336Z,5.87
2023-02-09T14:56:25.873Z,5.93
2023-02-09T14:58:53.548Z,5.89
2023-02-09T15:01:21.308Z,5.91
2023-02-09T15:03:48.948Z,5.69
2023-02-09T15:06:18.160Z,5.55
2023-02-09T15:08:45.837Z,5.53
2023-02-09T15:11:42.191Z,5.38
2023-02-09T15:14:11.025Z,5.43
2023-02-09T15:16:38.754Z,5.35
2023-02-09T15:19:11.842Z,5.23
2023-02-09T15:21:40.904Z,5.30
2023-02-09T15:24:08.612Z,5.27
2023-02-09T15:26:37.517Z,5.28
2023-02-09T15:29:11.745Z,5.20
2023-02-09T15:31:39.494Z,5.19
2023-02-09T15:34:07.495Z,5.07
2023-02-09T15:36:35.380Z,5.12
2023-02-09T15:39:05.135Z,4.93
2023-02-09T15:41:50.535Z,4.88
2023-02-09T15:44:37.320Z,4.98
2023-02-09T15:47:23.220Z,4.79
2023-02-09T15:49:51.365Z,4.83
2023-02-09T15:52:19.405Z,4.90
2023-02-09T15:54:49.845Z,4.77
2023-02-09T15:57:17.494Z,4.80
2023-02-09T15:59:46.370Z,4.89
2023-02-09T16:02:14.872Z,4.92
2023-02-09T16:04:42.522Z,4.81
2023-02-09T16:07:12.041Z,4.78
2023-02-09T16:09:40.848Z,4.65
2023-02-09T16:12:11.996Z,4.67
2023-02-09T16:14:39.911Z,4.45
2023-02-09T16:17:08.791Z,4.60
2023-02-09T16:19:36.509Z,4.51
2023-02-09T16:22:05.380Z,4.60
2023-02-09T16:24:43.191Z,4.60
2023-02-09T16:27:16.290Z,4.58
2023-02-09T16:29:44.117Z,4.57
2023-02-09T16:32:17.011Z,4.65
2023-02-09T16:34:44.720Z,4.61
2023-02-09T16:37:15.207Z,4.60
2023-02-09T16:39:43.501Z,4.56
2023-02-09T16:42:14.872Z,4.57
2023-02-09T16:44:43.035Z,4.68
2023-02-09T16:47:17.315Z,4.58
2023-02-09T16:49:49.723Z,4.68
2023-02-09T16:52:20.414Z,4.76
2023-02-09T16:54:50.080Z,4.68
2023-02-09T16:57:20.772Z,4.71
2023-02-09T16:59:48.423Z,4.72
2023-02-09T17:02:29.836Z,4.64
2023-02-09T17:04:58.006Z,4.56
2023-02-09T17:07:30.169Z,4.58
2023-02-09T17:09:59.903Z,4.71
2023-02-09T17:12:29.069Z,4.61
2023-02-09T17:14:56.824Z,4.46
2023-02-09T17:17:24.566Z,4.47
2023-02-09T17:19:52.893Z,4.58
2023-02-09T17:22:20.543Z,4.81
2023-02-09T17:24:48.493Z,4.87
2023-02-09T17:27:16.128Z,4.64
2023-02-09T17:29:45.216Z,4.91
2023-02-09T17:32:15.735Z,5.04
2023-02-09T17:34:43.749Z,4.93
2023-02-09T17:37:14.518Z,4.82
2023-02-09T17:39:42.238Z,4.87
2023-02-09T17:42:20.675Z,4.89
2023-02-09T17:44:50.811Z,5.04
2023-02-09T17:47:20.612Z,5.02
2023-02-09T17:49:48.445Z,5.09
2023-02-09T17:52:17.984Z,5.20
2023-02-09T17:54:46.499Z,5.22
2023-02-09T17:57:15.009Z,5.26
2023-02-09T17:59:42.820Z,5.22
2023-02-09T18:02:16.560Z,5.15
2023-02-09T18:04:44.266Z,5.08
2023-02-09T18:07:12.746Z,5.11
2023-02-09T18:09:40.394Z,5.11
2023-02-09T18:12:11.940Z,5.00
2023-02-09T18:14:40.010Z,4.97
2023-02-09T18:17:07.756Z,5.06
2023-02-09T18:19:36.893Z,5.12
2023-02-09T18:22:05.009Z,5.17
2023-02-09T18:24:34.137Z,5.07
2023-02-09T18:27:02.069Z,5.00
2023-02-09T18:29:30.224Z,5.16
2023-02-09T18:31:58.277Z,5.12
2023-02-09T18:34:26.109Z,5.25
2023-02-09T18:36:55.209Z,5.20
2023-02-09T18:39:22.922Z,5.18
2023-02-09T18:41:54.432Z,5.01
2023-02-09T18:44:24.377Z,5.01
2023-02-09T18:46:52.237Z,5.15
2023-02-09T18:49:19.962Z,5.20
2023-02-09T18:51:47.835Z,5.20
2023-02-09T18:54:16.938Z,5.24
2023-02-09T18:56:44.644Z,5.22
2023-02-09T18:59:12.415Z,5.13
2023-02-09T19:01:41.025Z,5.08
2023-02-09T19:04:08.963Z,5.03
2023-02-09T19:06:36.679Z,5.23
2023-02-09T19:09:04.542Z,5.26
2023-02-09T19:11:33.604Z,5.29
2023-02-09T19:14:18.852Z,5.30
2023-02-09T19:16:46.554Z,5.35
2023-02-09T19:19:16.071Z,5.32
2023-02-09T19:21:43.767Z,5.28
2023-02-09T19:24:11.440Z,5.26
2023-02-09T19:26:40.530Z,5.33
2023-02-09T19:29:08.217Z,5.14
2023-02-09T19:31:35.954Z,5.19
2023-02-09T19:34:03.704Z,5.17
2023-02-09T19:36:31.466Z,5.26
2023-02-09T19:39:00.214Z,5.30
2023-02-09T19:41:28.276Z,5.27
2023-02-09T19:43:57.918Z,5.13
2023-02-09T19:46:26.234Z,5.22
2023-02-09T19:48:54.634Z,5.21
2023-02-09T19:51:22.738Z,5.29
2023-02-09T19:53:50.861Z,5.40
2023-02-09T19:56:20.757Z,5.43
2023-02-09T19:58:48.455Z,5.47
2023-02-09T20:01:17.827Z,5.13
2023-02-09T20:03:45.525Z,5.18
2023-02-09T20:06:15.006Z,5.33
2023-02-09T20:08:42.920Z,5.37
2023-02-09T20:11:13.127Z,5.43
2023-02-09T20:13:40.905Z,5.39
2023-02-09T20:16:09.484Z,5.38
2023-02-09T20:18:40.119Z,5.23
2023-02-09T20:21:09.250Z,5.29
2023-02-09T20:23:37.364Z,5.43
2023-02-09T20:26:10.804Z,5.27
2023-02-09T20:28:38.891Z,5.28
2023-02-09T20:31:07.461Z,5.19
2023-02-09T20:33:35.649Z,5.20
2023-02-09T20:36:07.535Z,5.26
2023-02-09T20:38:36.477Z,5.15
2023-02-09T20:41:07.023Z,5.18
2023-02-09T20:43:51.942Z,5.01
2023-02-09T20:46:39.271Z,4.99
2023-02-09T20:49:07.359Z,5.09
2023-02-09T20:51:36.372Z,5.07
2023-02-09T20:54:04.740Z,5.18
2023-02-09T20:56:32.538Z,5.09
2023-02-09T20:59:00.319Z,5.03
2023-02-09T21:01:28.147Z,4.99
2023-02-09T21:03:56.878Z,4.98
2023-02-09T21:06:24.587Z,5.02
2023-02-09T21:08:54.169Z,5.08
2023-02-09T21:11:21.931Z,5.01
2023-02-09T21:13:49.668Z,4.96
2023-02-09T21:16:17.730Z,5.04
2023-02-09T21:18:45.849Z,5.12
2023-02-09T21:21:15.860Z,5.09
2023-02-09T21:23:43.752Z,5.07
2023-02-09T21:26:14.847Z,4.99
2023-02-09T21:28:43.691Z,5.15
2023-02-09T21:31:12.395Z,5.09
2023-02-09T21:33:40.043Z,4.98
2023-02-09T21:36:08.692Z,4.99
2023-02-09T21:38:41.374Z,4.97
2023-02-09T21:41:30.804Z,4.82
2023-02-09T21:44:00.261Z,4.73
2023-02-09T21:46:28.425Z,4.73
2023-02-09T21:48:56.296Z,4.66
2023-02-09T21:51:24.362Z,4.55
2023-02-09T21:53:52.531Z,4.31
2023-02-09T21:56:20.535Z,4.29
2023-02-09T21:58:48.198Z,4.22
2023-02-09T22:01:17.289Z,4.06
2023-02-09T22:03:48.905Z,3.93
2023-02-09T22:06:16.855Z,3.61
2023-02-09T22:08:44.624Z,3.55
2023-02-09T22:11:12.375Z,3.46
2023-02-09T22:13:40.148Z,3.40
2023-02-09T22:16:08.383Z,3.35
2023-02-09T22:18:37.791Z,3.20
2023-02-09T22:21:07.609Z,3.12
2023-02-09T22:23:35.357Z,3.06
2023-02-09T22:26:03.683Z,3.04
2023-02-09T22:28:31.459Z,2.83
2023-02-09T22:31:06.508Z,2.83
2023-02-09T22:33:34.415Z,2.75
2023-02-09T22:36:07.197Z,2.76
2023-02-09T22:38:35.079Z,2.69
2023-02-09T22:41:07.030Z,2.76
2023-02-09T22:43:34.842Z,2.66
2023-02-09T22:46:02.622Z,2.60
2023-02-09T22:48:30.287Z,2.58
2023-02-09T22:50:57.990Z,2.50
2023-02-09T22:53:27.484Z,2.45
2023-02-09T22:55:55.127Z,2.41
2023-02-09T22:58:22.823Z,2.39
2023-02-09T23:00:50.961Z,2.32
2023-02-09T23:03:18.606Z,2.34
2023-02-09T23:05:46.608Z,2.25
2023-02-09T23:08:14.428Z,2.29
2023-02-09T23:10:43.502Z,2.29
2023-02-09T23:13:11.259Z,2.32
2023-02-09T23:15:39.006Z,2.21
2023-02-09T23:18:06.818Z,2.16
2023-02-09T23:20:34.547Z,2.18
2023-02-09T23:23:06.503Z,2.17
2023-02-09T23:25:34.237Z,2.20
2023-02-09T23:28:03.475Z,2.19
2023-02-09T23:30:31.256Z,2.20
2023-02-09T23:32:58.944Z,2.22
2023-02-09T23:35:26.708Z,2.17
2023-02-09T23:37:54.364Z,2.15
2023-02-09T23:40:22.059Z,2.06
2023-02-09T23:42:50.123Z,2.08
2023-02-09T23:45:19.127Z,2.01
2023-02-09T23:47:46.877Z,1.99
2023-02-09T23:50:14.675Z,1.88
2023-02-09T23:52:42.340Z,1.90
2023-02-09T23:55:10.147Z,1.83
2023-02-09T23:57:37.816Z,1.90
